Terminal Aerodrome Forecast
Issued by NWS

Home | Current Version | Previous Version | Graphics & Text | Print | Product List | Glossary Off
Versions: 1 2 3 4 5 6 7 8 9 10 11 12 13 14 15

000
FTUS43 KMPX 291700
TAFAXN
TAF
KAXN 291725Z 2918/3018 29005KT P6SM -SHRA BKN012 OVC025
     FM292100 35003KT P6SM BKN025 BKN060
     FM300000 35004KT P6SM SCT025 BKN090
     FM300600 01005KT 6SM BR SCT008 OVC015
     FM300800 36006KT 3SM BR OVC004
     FM301500 04008KT P6SM BKN015=

USA.gov is the U.S. government's official web portal to all federal, state and local government web resources and services.